Time;durP1;ratioP1;P1;durP2;ratioP2;P2;SDS_P1;SDS_P2;PMS_P1;PMS_P2;Temp;Humidity;BMP_temperature;BMP_pressure;BME280_temperature;BME280_humidity;BME280_pressure;Samples;Min_cycle;Max_cycle;Signal;HPM_P1;HPM_P2
2022/07/09 00:02:24;;;;;;;4.70;4.30;;;;;;;;;;5103343;28;24804;-46
2022/07/09 00:04:49;;;;;;;4.50;4.20;;;;;;;;;;5097481;28;24530;-46
2022/07/09 00:07:14;;;;;;;4.45;4.15;;;;;;;;;;5098654;28;24480;-46
2022/07/09 00:09:40;;;;;;;5.75;4.88;;;;;;;;;;5102223;27;24464;-46
2022/07/09 00:12:05;;;;;;;5.40;4.90;;;;;;;;;;5092148;28;24963;-45
2022/07/09 00:14:30;;;;;;;5.50;5.07;;;;;;;;;;5089718;28;24438;-46
2022/07/09 00:16:55;;;;;;;5.03;4.40;;;;;;;;;;5097238;28;24428;-47
2022/07/09 00:19:20;;;;;;;5.43;4.93;;;;;;;;;;5097989;28;24425;-46
2022/07/09 00:21:46;;;;;;;5.70;5.10;;;;;;;;;;5089676;28;24486;-47
2022/07/09 00:24:11;;;;;;;5.00;4.60;;;;;;;;;;5086643;28;24521;-47
2022/07/09 00:26:36;;;;;;;5.80;5.30;;;;;;;;;;5090706;28;24445;-46
2022/07/09 00:29:01;;;;;;;7.20;4.80;;;;;;;;;;5093261;28;24784;-46
2022/07/09 00:31:26;;;;;;;5.50;4.97;;;;;;;;;;5101162;28;24510;-46
2022/07/09 00:33:52;;;;;;;5.20;4.70;;;;;;;;;;5085547;28;24429;-46
2022/07/09 00:36:17;;;;;;;5.50;5.10;;;;;;;;;;5098208;28;24419;-46
2022/07/09 00:38:43;;;;;;;4.85;4.55;;;;;;;;;;5088777;28;24430;-46
2022/07/09 00:41:08;;;;;;;5.20;4.80;;;;;;;;;;5096180;28;24433;-46
2022/07/09 00:43:33;;;;;;;5.60;5.10;;;;;;;;;;5101618;28;25023;-46
2022/07/09 00:45:58;;;;;;;5.20;4.80;;;;;;;;;;5099475;28;24422;-46
2022/07/09 00:48:23;;;;;;;5.40;4.90;;;;;;;;;;5093118;28;25042;-46
2022/07/09 00:50:49;;;;;;;5.80;5.30;;;;;;;;;;5096332;28;25035;-45
2022/07/09 00:53:15;;;;;;;5.70;5.30;;;;;;;;;;5093556;28;24448;-45
2022/07/09 00:55:40;;;;;;;5.50;5.10;;;;;;;;;;5103019;28;24440;-45
2022/07/09 00:58:06;;;;;;;5.27;4.87;;;;;;;;;;5090142;28;24622;-45
2022/07/09 01:00:32;;;;;;;5.10;4.70;;;;;;;;;;5100857;28;24524;-45
2022/07/09 01:02:57;;;;;;;6.38;5.03;;;;;;;;;;5096508;28;25493;-46
2022/07/09 01:05:22;;;;;;;5.20;4.70;;;;;;;;;;5105074;28;24471;-46
2022/07/09 01:07:47;;;;;;;5.25;4.75;;;;;;;;;;5097056;28;24468;-46
2022/07/09 01:10:13;;;;;;;5.90;5.40;;;;;;;;;;5102655;28;24422;-46
2022/07/09 01:12:38;;;;;;;5.83;5.33;;;;;;;;;;5095318;28;24560;-46
2022/07/09 01:15:04;;;;;;;5.40;5.00;;;;;;;;;;5099319;28;24989;-46
2022/07/09 01:17:36;;;;;;;6.03;5.43;;;;;;;;;;5095803;28;24450;-47
2022/07/09 01:20:01;;;;;;;5.50;5.00;;;;;;;;;;5090575;28;24414;-46
2022/07/09 01:22:26;;;;;;;5.50;5.10;;;;;;;;;;5100254;28;24433;-45
2022/07/09 01:24:53;;;;;;;5.70;5.20;;;;;;;;;;5102433;28;24444;-46
2022/07/09 01:27:18;;;;;;;6.10;5.60;;;;;;;;;;5088980;28;24429;-46
2022/07/09 01:29:49;;;;;;;5.90;5.40;;;;;;;;;;5086844;28;24982;-46
2022/07/09 01:32:14;;;;;;;7.00;6.50;;;;;;;;;;5098678;28;24967;-46
2022/07/09 01:34:39;;;;;;;6.10;5.60;;;;;;;;;;5088927;28;24420;-46
2022/07/09 01:37:04;;;;;;;6.20;5.80;;;;;;;;;;5096936;28;24421;-46
2022/07/09 01:39:29;;;;;;;6.40;5.90;;;;;;;;;;5099910;28;24405;-46
2022/07/09 01:41:54;;;;;;;7.20;6.60;;;;;;;;;;5090593;28;24509;-46
2022/07/09 01:44:20;;;;;;;7.03;6.40;;;;;;;;;;5090751;28;24449;-46
2022/07/09 01:46:45;;;;;;;7.80;7.10;;;;;;;;;;5096300;28;24432;-46
2022/07/09 01:49:10;;;;;;;7.75;7.05;;;;;;;;;;5091750;28;24544;-46
2022/07/09 01:51:35;;;;;;;7.93;7.33;;;;;;;;;;5093626;28;24842;-46
2022/07/09 01:54:01;;;;;;;7.30;6.80;;;;;;;;;;5100246;28;24479;-45
2022/07/09 01:56:26;;;;;;;7.80;7.00;;;;;;;;;;5100626;28;24422;-46
2022/07/09 01:58:51;;;;;;;7.50;6.90;;;;;;;;;;5097041;28;24585;-45
2022/07/09 02:01:16;;;;;;;7.70;7.00;;;;;;;;;;5091204;28;24479;-46
2022/07/09 02:03:41;;;;;;;6.80;6.20;;;;;;;;;;5096849;28;24429;-46
2022/07/09 02:06:06;;;;;;;7.10;6.50;;;;;;;;;;5095606;28;24931;-46
2022/07/09 02:08:31;;;;;;;7.30;6.70;;;;;;;;;;5102645;28;24444;-45
2022/07/09 02:10:57;;;;;;;7.23;6.53;;;;;;;;;;5102139;28;24673;-46
2022/07/09 02:13:22;;;;;;;7.80;7.30;;;;;;;;;;5093354;28;24415;-46
2022/07/09 02:15:47;;;;;;;7.38;6.75;;;;;;;;;;5089872;28;24418;-46
2022/07/09 02:18:12;;;;;;;7.60;7.00;;;;;;;;;;5096923;28;24974;-46
2022/07/09 02:20:37;;;;;;;6.80;6.23;;;;;;;;;;5104848;28;24530;-46
2022/07/09 02:23:03;;;;;;;7.70;7.10;;;;;;;;;;5089117;28;24643;-46
2022/07/09 02:25:28;;;;;;;7.70;7.00;;;;;;;;;;5095175;28;24445;-46
2022/07/09 02:27:53;;;;;;;7.30;6.80;;;;;;;;;;5087609;28;24471;-46
2022/07/09 02:30:18;;;;;;;9.07;7.27;;;;;;;;;;5103368;28;24440;-46
2022/07/09 02:32:44;;;;;;;7.43;6.83;;;;;;;;;;5097073;28;24464;-46
2022/07/09 02:35:09;;;;;;;7.40;6.70;;;;;;;;;;5102326;28;24842;-46
2022/07/09 02:37:34;;;;;;;7.93;7.23;;;;;;;;;;5097141;28;24818;-46
2022/07/09 02:39:59;;;;;;;7.13;6.53;;;;;;;;;;5094430;28;24994;-46
2022/07/09 02:42:24;;;;;;;7.65;7.05;;;;;;;;;;5085673;28;24441;-45
2022/07/09 02:44:50;;;;;;;7.43;6.87;;;;;;;;;;5095236;28;24799;-45
2022/07/09 02:47:15;;;;;;;7.30;6.60;;;;;;;;;;5096816;28;24451;-46
2022/07/09 02:49:40;;;;;;;7.33;6.63;;;;;;;;;;5105622;28;24442;-46
2022/07/09 02:52:06;;;;;;;7.40;6.80;;;;;;;;;;5091448;28;24433;-46
2022/07/09 02:54:31;;;;;;;7.20;6.50;;;;;;;;;;5099828;28;24534;-46
2022/07/09 02:56:57;;;;;;;8.23;7.45;;;;;;;;;;5103303;28;24517;-46
2022/07/09 02:59:22;;;;;;;8.07;7.40;;;;;;;;;;5105339;28;24457;-46
2022/07/09 03:01:47;;;;;;;7.75;7.15;;;;;;;;;;5097322;28;24488;-47
2022/07/09 03:04:13;;;;;;;7.67;6.90;;;;;;;;;;5101419;28;24827;-47
2022/07/09 03:06:38;;;;;;;7.50;6.90;;;;;;;;;;5100923;28;25028;-47
2022/07/09 03:09:03;;;;;;;8.07;7.37;;;;;;;;;;5101391;28;24430;-47
2022/07/09 03:11:29;;;;;;;8.00;7.30;;;;;;;;;;5094901;28;24490;-47
2022/07/09 03:13:54;;;;;;;7.40;6.77;;;;;;;;;;5106248;28;24505;-47
2022/07/09 03:16:19;;;;;;;7.50;6.80;;;;;;;;;;5100492;28;24768;-47
2022/07/09 03:18:44;;;;;;;8.00;7.40;;;;;;;;;;5105877;28;24421;-47
2022/07/09 03:21:11;;;;;;;7.37;6.77;;;;;;;;;;5099159;28;24510;-46
2022/07/09 03:23:36;;;;;;;8.10;7.30;;;;;;;;;;5105355;28;24818;-46
2022/07/09 03:26:01;;;;;;;8.03;7.50;;;;;;;;;;5102228;28;24491;-47
2022/07/09 03:28:26;;;;;;;7.80;7.20;;;;;;;;;;5094838;28;24423;-47
2022/07/09 03:30:51;;;;;;;7.30;6.73;;;;;;;;;;5094173;28;24503;-47
2022/07/09 03:33:17;;;;;;;8.40;7.70;;;;;;;;;;5104564;28;24402;-48
2022/07/09 03:35:42;;;;;;;7.07;6.53;;;;;;;;;;5098495;28;24434;-47
2022/07/09 03:38:07;;;;;;;7.30;6.80;;;;;;;;;;5095034;28;24440;-45
2022/07/09 03:40:33;;;;;;;7.10;6.40;;;;;;;;;;5097727;28;24482;-45
2022/07/09 03:42:58;;;;;;;8.93;8.13;;;;;;;;;;5087174;28;24429;-45
2022/07/09 03:45:23;;;;;;;7.35;6.65;;;;;;;;;;5099508;28;24779;-47
2022/07/09 03:47:48;;;;;;;7.20;6.60;;;;;;;;;;5096233;28;24490;-47
2022/07/09 03:50:13;;;;;;;6.93;6.32;;;;;;;;;;5103828;28;25023;-46
2022/07/09 03:52:39;;;;;;;7.32;6.80;;;;;;;;;;5100128;28;24558;-46
2022/07/09 03:55:04;;;;;;;6.00;5.50;;;;;;;;;;5103343;28;24839;-46
2022/07/09 03:57:29;;;;;;;7.10;6.60;;;;;;;;;;5099483;28;24777;-46
2022/07/09 03:59:54;;;;;;;6.43;5.93;;;;;;;;;;5099902;28;24491;-46
2022/07/09 04:02:19;;;;;;;6.72;6.13;;;;;;;;;;5086312;28;24473;-48
2022/07/09 04:04:45;;;;;;;5.90;5.50;;;;;;;;;;5093734;28;24418;-47
2022/07/09 04:07:10;;;;;;;6.13;5.53;;;;;;;;;;5094912;28;24521;-46
2022/07/09 04:09:35;;;;;;;6.47;5.97;;;;;;;;;;5099867;28;24433;-46
2022/07/09 04:12:00;;;;;;;6.67;6.07;;;;;;;;;;5092518;28;24830;-47
2022/07/09 04:14:25;;;;;;;5.47;5.07;;;;;;;;;;5091432;28;24522;-46
2022/07/09 04:16:50;;;;;;;5.90;5.50;;;;;;;;;;5088238;28;24414;-47
2022/07/09 04:19:16;;;;;;;5.10;4.70;;;;;;;;;;5093851;28;24413;-51
2022/07/09 04:21:41;;;;;;;5.18;4.78;;;;;;;;;;5097278;28;24471;-46
2022/07/09 04:24:06;;;;;;;5.60;5.10;;;;;;;;;;5095517;28;24421;-47
2022/07/09 04:26:31;;;;;;;5.57;5.13;;;;;;;;;;5090102;28;24502;-47
2022/07/09 04:28:56;;;;;;;4.80;4.50;;;;;;;;;;5097152;28;24425;-48
2022/07/09 04:31:21;;;;;;;5.90;5.15;;;;;;;;;;5095264;28;24433;-48
2022/07/09 04:33:47;;;;;;;5.37;4.97;;;;;;;;;;5097263;28;24840;-48
2022/07/09 04:36:12;;;;;;;4.90;4.50;;;;;;;;;;5102033;28;24477;-47
2022/07/09 04:38:37;;;;;;;4.90;4.60;;;;;;;;;;5091284;28;24422;-47
2022/07/09 04:41:03;;;;;;;4.40;4.10;;;;;;;;;;5097067;28;24522;-47
2022/07/09 04:43:29;;;;;;;5.80;5.40;;;;;;;;;;5092282;28;24414;-47
2022/07/09 04:46:10;;;;;;;5.57;5.07;;;;;;;;;;5088813;28;24513;-47
2022/07/09 04:48:35;;;;;;;5.00;4.60;;;;;;;;;;5093027;28;24495;-47
2022/07/09 04:51:00;;;;;;;5.50;5.10;;;;;;;;;;5092962;28;24426;-47
2022/07/09 04:53:25;;;;;;;5.20;4.90;;;;;;;;;;5112204;27;24425;-47
2022/07/09 04:55:50;;;;;;;4.78;4.47;;;;;;;;;;5098126;27;24421;-47
2022/07/09 04:58:16;;;;;;;5.10;4.70;;;;;;;;;;5091189;28;24513;-46
2022/07/09 05:00:41;;;;;;;5.30;4.80;;;;;;;;;;5097306;27;24918;-45
2022/07/09 05:03:06;;;;;;;4.60;4.20;;;;;;;;;;5099380;28;24514;-46
2022/07/09 05:05:31;;;;;;;5.57;5.17;;;;;;;;;;5102117;27;24952;-46
2022/07/09 05:07:57;;;;;;;4.43;4.13;;;;;;;;;;5097305;28;24506;-46
2022/07/09 05:10:22;;;;;;;4.90;4.50;;;;;;;;;;5102957;27;24520;-46
2022/07/09 05:12:47;;;;;;;4.93;4.53;;;;;;;;;;5100984;27;24751;-46
2022/07/09 05:15:13;;;;;;;4.20;3.90;;;;;;;;;;5103257;27;24518;-46
2022/07/09 05:17:38;;;;;;;4.97;4.57;;;;;;;;;;5104379;27;24426;-45
2022/07/09 05:20:04;;;;;;;5.10;4.53;;;;;;;;;;5092560;28;25056;-45
2022/07/09 05:22:31;;;;;;;4.47;4.10;;;;;;;;;;5095318;28;24517;-46
2022/07/09 05:24:56;;;;;;;4.50;4.10;;;;;;;;;;5099694;28;24887;-46
2022/07/09 05:27:24;;;;;;;3.58;3.28;;;;;;;;;;5093955;28;24465;-46
2022/07/09 05:29:50;;;;;;;5.43;3.80;;;;;;;;;;5098420;28;24421;-45
2022/07/09 05:32:15;;;;;;;3.37;3.17;;;;;;;;;;5095957;28;24486;-46
2022/07/09 05:34:40;;;;;;;3.03;2.83;;;;;;;;;;5102037;28;24410;-46
2022/07/09 05:37:05;;;;;;;3.63;3.40;;;;;;;;;;5085287;28;24422;-46
2022/07/09 05:39:31;;;;;;;3.80;3.40;;;;;;;;;;5097725;28;24417;-46
2022/07/09 05:41:56;;;;;;;4.40;4.10;;;;;;;;;;5078674;28;24444;-46
2022/07/09 05:44:22;;;;;;;4.00;3.70;;;;;;;;;;5105009;28;24475;-46
2022/07/09 05:46:47;;;;;;;4.00;3.70;;;;;;;;;;5095679;28;24571;-46
2022/07/09 05:49:12;;;;;;;3.90;3.50;;;;;;;;;;5103392;28;24445;-46
2022/07/09 05:51:37;;;;;;;4.87;3.73;;;;;;;;;;5096586;28;24434;-46
2022/07/09 05:54:03;;;;;;;3.50;3.20;;;;;;;;;;5086706;28;24508;-46
2022/07/09 05:56:28;;;;;;;3.85;2.90;;;;;;;;;;5089657;28;24419;-46
2022/07/09 05:58:53;;;;;;;3.43;3.13;;;;;;;;;;5084255;28;24422;-46
2022/07/09 06:01:19;;;;;;;3.37;2.90;;;;;;;;;;5095686;28;24867;-46
2022/07/09 06:03:44;;;;;;;2.78;2.58;;;;;;;;;;5091630;28;25348;-46
2022/07/09 06:06:09;;;;;;;3.77;2.70;;;;;;;;;;5103892;28;24646;-46
2022/07/09 06:08:34;;;;;;;3.00;2.50;;;;;;;;;;5098180;28;24417;-46
2022/07/09 06:11:00;;;;;;;3.20;2.90;;;;;;;;;;5094759;28;24433;-46
2022/07/09 06:13:25;;;;;;;4.32;3.42;;;;;;;;;;5098841;28;24426;-46
2022/07/09 06:15:51;;;;;;;2.97;2.67;;;;;;;;;;5084575;28;24791;-46
2022/07/09 06:18:16;;;;;;;4.13;2.60;;;;;;;;;;5092283;28;24679;-46
2022/07/09 06:20:41;;;;;;;3.27;2.97;;;;;;;;;;5091756;28;25270;-47
2022/07/09 06:23:06;;;;;;;4.27;3.37;;;;;;;;;;5093783;28;24432;-46
2022/07/09 06:25:32;;;;;;;3.50;2.90;;;;;;;;;;5100444;28;24422;-46
2022/07/09 06:27:57;;;;;;;3.10;2.80;;;;;;;;;;5098903;28;24521;-46
2022/07/09 06:30:22;;;;;;;2.92;2.72;;;;;;;;;;5089424;28;24949;-46
2022/07/09 06:32:48;;;;;;;4.43;2.80;;;;;;;;;;5086617;28;24436;-47
2022/07/09 06:35:13;;;;;;;3.97;3.27;;;;;;;;;;5094946;28;25259;-46
2022/07/09 06:37:38;;;;;;;3.85;3.45;;;;;;;;;;5088263;27;24418;-46
2022/07/09 06:40:04;;;;;;;3.40;3.10;;;;;;;;;;5087872;28;24428;-46
2022/07/09 06:42:29;;;;;;;3.50;3.20;;;;;;;;;;5093762;28;24422;-46
2022/07/09 06:44:54;;;;;;;5.30;3.70;;;;;;;;;;5098693;28;24421;-46
2022/07/09 06:47:19;;;;;;;3.80;3.50;;;;;;;;;;5099831;28;24545;-47
2022/07/09 06:49:44;;;;;;;5.27;3.60;;;;;;;;;;5091965;28;24460;-46
2022/07/09 06:52:10;;;;;;;4.50;4.10;;;;;;;;;;5094439;28;24422;-46
2022/07/09 06:54:35;;;;;;;3.80;3.50;;;;;;;;;;5104180;28;24424;-46
2022/07/09 06:57:01;;;;;;;4.60;3.25;;;;;;;;;;5103511;27;24595;-47
2022/07/09 06:59:26;;;;;;;4.13;3.70;;;;;;;;;;5091915;28;26326;-46
2022/07/09 07:01:51;;;;;;;4.00;3.60;;;;;;;;;;5106068;28;24779;-47
2022/07/09 07:04:17;;;;;;;4.70;4.10;;;;;;;;;;5101737;28;24515;-46
2022/07/09 07:06:42;;;;;;;5.20;4.70;;;;;;;;;;5101180;28;24784;-47
2022/07/09 07:09:07;;;;;;;4.77;4.37;;;;;;;;;;5094380;28;24432;-46
2022/07/09 07:11:32;;;;;;;4.27;3.93;;;;;;;;;;5100067;27;24471;-47
2022/07/09 07:13:57;;;;;;;5.20;4.80;;;;;;;;;;5092514;27;24425;-46
2022/07/09 07:16:23;;;;;;;3.60;3.30;;;;;;;;;;5091522;27;24511;-47
2022/07/09 07:18:48;;;;;;;5.70;4.70;;;;;;;;;;5109105;28;24421;-47
2022/07/09 07:21:13;;;;;;;5.68;4.43;;;;;;;;;;5104614;28;25234;-46
2022/07/09 07:23:38;;;;;;;4.30;3.90;;;;;;;;;;5103355;28;24488;-47
2022/07/09 07:26:03;;;;;;;4.13;3.83;;;;;;;;;;5102717;28;24826;-46
2022/07/09 07:28:29;;;;;;;4.22;3.83;;;;;;;;;;5100296;28;24516;-46
2022/07/09 07:30:54;;;;;;;4.13;3.83;;;;;;;;;;5096500;28;25043;-46
2022/07/09 07:33:19;;;;;;;4.50;4.10;;;;;;;;;;5099873;28;25216;-46
2022/07/09 07:35:45;;;;;;;4.50;4.10;;;;;;;;;;5062893;28;25018;-47
2022/07/09 07:38:10;;;;;;;4.80;3.47;;;;;;;;;;5064591;28;24425;-47
2022/07/09 07:40:36;;;;;;;3.92;3.53;;;;;;;;;;5077334;27;26038;-46
2022/07/09 07:43:01;;;;;;;3.80;3.50;;;;;;;;;;5090444;28;24517;-47
2022/07/09 07:45:26;;;;;;;5.27;4.20;;;;;;;;;;5098747;28;24422;-46
2022/07/09 07:47:54;;;;;;;4.80;3.70;;;;;;;;;;5095723;28;25015;-47
2022/07/09 07:50:19;;;;;;;4.13;3.83;;;;;;;;;;5102577;28;24418;-46
2022/07/09 07:52:44;;;;;;;5.27;4.77;;;;;;;;;;5095027;28;24424;-47
2022/07/09 07:55:09;;;;;;;4.10;3.80;;;;;;;;;;5093607;28;24978;-46
2022/07/09 07:57:34;;;;;;;3.55;3.30;;;;;;;;;;5103275;28;24414;-46
2022/07/09 07:59:59;;;;;;;4.80;3.60;;;;;;;;;;5095556;28;24508;-50
2022/07/09 08:02:25;;;;;;;4.00;3.60;;;;;;;;;;5096779;28;24972;-46
2022/07/09 08:04:50;;;;;;;3.87;3.40;;;;;;;;;;5093402;28;24460;-45
2022/07/09 08:07:15;;;;;;;3.55;3.25;;;;;;;;;;5106321;28;24389;-48
2022/07/09 08:09:40;;;;;;;4.73;3.83;;;;;;;;;;5091088;28;24504;-45
2022/07/09 08:12:06;;;;;;;4.00;3.60;;;;;;;;;;5093325;28;24517;-45
2022/07/09 08:14:31;;;;;;;3.05;2.85;;;;;;;;;;5099116;27;24424;-46
2022/07/09 08:16:56;;;;;;;4.70;3.70;;;;;;;;;;5111987;27;24430;-46
2022/07/09 08:19:21;;;;;;;4.20;3.60;;;;;;;;;;5087346;27;25304;-45
2022/07/09 08:21:46;;;;;;;3.40;3.10;;;;;;;;;;5097062;28;24516;-46
2022/07/09 08:24:11;;;;;;;4.60;3.80;;;;;;;;;;5096847;28;24410;-46
2022/07/09 08:26:37;;;;;;;5.67;3.50;;;;;;;;;;5088836;28;24998;-46
2022/07/09 08:29:02;;;;;;;6.30;3.90;;;;;;;;;;5096193;28;24505;-46
2022/07/09 08:31:27;;;;;;;3.80;3.50;;;;;;;;;;5092151;28;25009;-46
2022/07/09 08:33:52;;;;;;;4.28;3.50;;;;;;;;;;5093752;28;24430;-46
2022/07/09 08:36:18;;;;;;;3.60;3.30;;;;;;;;;;5086734;28;24507;-46
2022/07/09 08:38:43;;;;;;;3.53;3.17;;;;;;;;;;5088787;28;24436;-46
2022/07/09 08:41:08;;;;;;;3.40;3.10;;;;;;;;;;5090825;28;25232;-46
2022/07/09 08:43:35;;;;;;;3.20;2.90;;;;;;;;;;5091253;28;24500;-46
2022/07/09 08:46:00;;;;;;;4.35;3.40;;;;;;;;;;5091840;28;24420;-46
2022/07/09 08:48:25;;;;;;;3.07;2.77;;;;;;;;;;5091248;27;24793;-44
2022/07/09 08:50:51;;;;;;;3.60;3.30;;;;;;;;;;5092700;28;24720;-45
2022/07/09 08:53:16;;;;;;;2.90;2.70;;;;;;;;;;5089900;28;24429;-45
2022/07/09 08:55:42;;;;;;;3.50;3.30;;;;;;;;;;5092715;28;24432;-46
2022/07/09 08:58:08;;;;;;;3.03;2.83;;;;;;;;;;5086057;28;24422;-46
2022/07/09 09:00:33;;;;;;;5.22;3.00;;;;;;;;;;5085802;28;24422;-45
2022/07/09 09:02:58;;;;;;;2.80;2.60;;;;;;;;;;5087917;28;24435;-47
2022/07/09 09:05:23;;;;;;;3.20;2.80;;;;;;;;;;5093664;28;24438;-47
2022/07/09 09:07:48;;;;;;;3.30;2.80;;;;;;;;;;5091083;28;25182;-46
2022/07/09 09:10:20;;;;;;;3.15;2.75;;;;;;;;;;5092327;27;24453;-47
2022/07/09 09:12:45;;;;;;;3.30;2.40;;;;;;;;;;5090641;28;26124;-46
2022/07/09 09:15:11;;;;;;;4.50;2.70;;;;;;;;;;5098565;28;25198;-46
2022/07/09 09:17:42;;;;;;;3.25;2.50;;;;;;;;;;5090645;28;24421;-46
2022/07/09 09:20:11;;;;;;;3.20;2.90;;;;;;;;;;5093196;28;24422;-46
2022/07/09 09:22:43;;;;;;;3.10;2.80;;;;;;;;;;5094778;28;24418;-46
2022/07/09 09:25:14;;;;;;;2.60;2.40;;;;;;;;;;5091241;28;24960;-46
2022/07/09 09:27:39;;;;;;;2.92;2.70;;;;;;;;;;5085967;28;24571;-46
2022/07/09 09:30:07;;;;;;;2.60;2.40;;;;;;;;;;5093330;28;25034;-47
2022/07/09 09:32:32;;;;;;;3.20;2.40;;;;;;;;;;5086605;28;24437;-45
2022/07/09 09:35:01;;;;;;;2.50;2.30;;;;;;;;;;5087320;28;24414;-46
2022/07/09 09:37:28;;;;;;;3.80;2.60;;;;;;;;;;5084395;28;24509;-46
2022/07/09 09:39:53;;;;;;;2.10;1.90;;;;;;;;;;5084054;28;24422;-48
2022/07/09 09:42:18;;;;;;;2.47;2.27;;;;;;;;;;5096739;28;24421;-46
2022/07/09 09:44:44;;;;;;;2.57;2.37;;;;;;;;;;5084264;28;25016;-46
2022/07/09 09:47:10;;;;;;;2.30;2.10;;;;;;;;;;5088021;28;24444;-46
2022/07/09 09:49:37;;;;;;;2.42;2.20;;;;;;;;;;5085997;28;24437;-46
2022/07/09 09:52:02;;;;;;;3.03;2.42;;;;;;;;;;5097687;28;24437;-45
2022/07/09 09:54:28;;;;;;;2.40;2.20;;;;;;;;;;5087114;28;24441;-45
2022/07/09 09:56:53;;;;;;;3.30;2.50;;;;;;;;;;5095001;28;24421;-45
2022/07/09 09:59:18;;;;;;;2.83;2.60;;;;;;;;;;5088747;28;24433;-45
2022/07/09 10:01:44;;;;;;;2.80;2.60;;;;;;;;;;5089822;28;24452;-45
2022/07/09 10:04:11;;;;;;;3.50;2.90;;;;;;;;;;5092767;28;24508;-46
2022/07/09 10:06:36;;;;;;;3.20;2.85;;;;;;;;;;5095282;28;24780;-46
2022/07/09 10:09:07;;;;;;;2.90;2.70;;;;;;;;;;5088838;28;24430;-46
2022/07/09 10:11:39;;;;;;;4.38;2.95;;;;;;;;;;5090021;28;24442;-46
2022/07/09 10:14:04;;;;;;;2.50;2.30;;;;;;;;;;5096062;28;24424;-46
2022/07/09 10:16:36;;;;;;;3.92;2.60;;;;;;;;;;5097052;28;24428;-47
2022/07/09 10:19:02;;;;;;;3.20;2.90;;;;;;;;;;5101193;27;24438;-46
2022/07/09 10:21:35;;;;;;;2.80;2.60;;;;;;;;;;5104499;28;24511;-46
2022/07/09 10:24:00;;;;;;;3.65;2.80;;;;;;;;;;5109796;28;24456;-46
2022/07/09 10:26:43;;;;;;;3.20;2.90;;;;;;;;;;5103738;28;24966;-46
2022/07/09 10:29:23;;;;;;;2.70;2.50;;;;;;;;;;5105289;28;24429;-46
2022/07/09 10:31:48;;;;;;;2.70;2.50;;;;;;;;;;5088711;28;24464;-46
2022/07/09 10:34:27;;;;;;;4.30;3.70;;;;;;;;;;5090110;28;24444;-46
2022/07/09 10:36:56;;;;;;;2.80;2.60;;;;;;;;;;5102834;28;25034;-46
2022/07/09 10:39:21;;;;;;;2.42;2.20;;;;;;;;;;5087284;27;25723;-46
2022/07/09 10:41:57;;;;;;;3.30;2.90;;;;;;;;;;5104295;28;24475;-44
2022/07/09 10:44:26;;;;;;;3.03;2.83;;;;;;;;;;5092344;28;24425;-46
2022/07/09 10:47:00;;;;;;;2.75;2.55;;;;;;;;;;5088584;28;24441;-46
2022/07/09 10:49:26;;;;;;;3.30;3.10;;;;;;;;;;5088635;28;24738;-46
2022/07/09 10:51:54;;;;;;;3.10;2.80;;;;;;;;;;5090251;28;24473;-46
2022/07/09 10:54:19;;;;;;;2.60;2.40;;;;;;;;;;5100972;28;24780;-47
2022/07/09 10:56:46;;;;;;;3.40;3.10;;;;;;;;;;5109782;27;25023;-45
2022/07/09 10:59:15;;;;;;;3.45;3.05;;;;;;;;;;5102245;27;24863;-46
2022/07/09 11:01:40;;;;;;;3.35;2.90;;;;;;;;;;5105277;27;24430;-47
2022/07/09 11:04:05;;;;;;;3.00;2.70;;;;;;;;;;5100210;28;24490;-46
2022/07/09 11:06:31;;;;;;;2.30;2.10;;;;;;;;;;5102757;28;25033;-46
2022/07/09 11:08:56;;;;;;;2.42;2.20;;;;;;;;;;5099419;28;24433;-46
2022/07/09 11:11:22;;;;;;;2.50;2.30;;;;;;;;;;5098421;28;24471;-46
2022/07/09 11:13:50;;;;;;;3.20;2.90;;;;;;;;;;5090828;28;24948;-46
2022/07/09 11:16:21;;;;;;;2.70;2.50;;;;;;;;;;5094299;28;24513;-46
2022/07/09 11:18:46;;;;;;;2.95;1.85;;;;;;;;;;5088520;28;24791;-46
2022/07/09 11:21:11;;;;;;;2.30;2.20;;;;;;;;;;5099475;27;24479;-46
2022/07/09 11:23:37;;;;;;;2.40;2.20;;;;;;;;;;5128747;27;24409;-46
2022/07/09 11:26:02;;;;;;;2.25;2.15;;;;;;;;;;5097518;27;24432;-45
2022/07/09 11:28:27;;;;;;;2.67;2.47;;;;;;;;;;5101357;28;24445;-45
2022/07/09 11:30:59;;;;;;;3.00;2.80;;;;;;;;;;5102901;28;24425;-45
2022/07/09 11:33:24;;;;;;;2.40;2.20;;;;;;;;;;5108108;28;25057;-46
2022/07/09 11:35:49;;;;;;;2.70;2.50;;;;;;;;;;5095431;28;24652;-46
2022/07/09 11:38:14;;;;;;;1.97;1.87;;;;;;;;;;5096353;27;24465;-46
2022/07/09 11:40:40;;;;;;;3.33;2.35;;;;;;;;;;5103385;27;24595;-46
2022/07/09 11:43:15;;;;;;;2.40;2.20;;;;;;;;;;5102599;28;24439;-46
2022/07/09 11:45:40;;;;;;;2.70;2.50;;;;;;;;;;5089406;28;24460;-46
2022/07/09 11:48:09;;;;;;;2.50;2.30;;;;;;;;;;5102029;27;24477;-46
2022/07/09 11:50:42;;;;;;;2.80;2.00;;;;;;;;;;5087966;28;24552;-46
2022/07/09 11:53:18;;;;;;;2.55;2.35;;;;;;;;;;5093374;28;24476;-46
2022/07/09 11:55:43;;;;;;;2.43;2.30;;;;;;;;;;5102701;27;24421;-46
2022/07/09 11:58:17;;;;;;;2.20;2.10;;;;;;;;;;5098585;27;24769;-47
2022/07/09 12:00:42;;;;;;;3.20;2.20;;;;;;;;;;5088858;28;24432;-46
2022/07/09 12:03:07;;;;;;;2.53;2.20;;;;;;;;;;5104348;27;24429;-46
2022/07/09 12:05:35;;;;;;;2.50;2.30;;;;;;;;;;5098877;27;24446;-46
2022/07/09 12:08:01;;;;;;;2.50;2.30;;;;;;;;;;5092646;28;24425;-46
2022/07/09 12:10:30;;;;;;;2.50;2.30;;;;;;;;;;5097849;28;24455;-45
2022/07/09 12:12:56;;;;;;;2.00;1.80;;;;;;;;;;5097298;27;24410;-45
2022/07/09 12:15:21;;;;;;;2.50;1.70;;;;;;;;;;5098993;27;24990;-46
2022/07/09 12:17:50;;;;;;;2.30;2.00;;;;;;;;;;5097722;27;24414;-46
2022/07/09 12:20:15;;;;;;;2.10;2.00;;;;;;;;;;5100818;28;24512;-46
2022/07/09 12:22:40;;;;;;;2.60;2.40;;;;;;;;;;5098191;28;24572;-47
2022/07/09 12:25:06;;;;;;;2.17;2.00;;;;;;;;;;5093134;28;24418;-45
2022/07/09 12:27:31;;;;;;;2.17;1.97;;;;;;;;;;5093587;28;24967;-46
2022/07/09 12:29:57;;;;;;;2.00;1.90;;;;;;;;;;5098122;28;24952;-46
2022/07/09 12:32:22;;;;;;;2.20;2.10;;;;;;;;;;5093985;27;25212;-46
2022/07/09 12:34:48;;;;;;;2.60;1.80;;;;;;;;;;5105817;28;24413;-46
2022/07/09 12:37:13;;;;;;;2.30;2.00;;;;;;;;;;5104829;27;25193;-46
2022/07/09 12:40:23;;;;;;;2.22;2.03;;;;;;;;;;5090620;27;24418;-46
2022/07/09 12:42:29;;;;;;;2.70;2.10;;;;;;;;;;5087809;27;25057;-46
2022/07/09 12:44:54;;;;;;;2.47;2.10;;;;;;;;;;5115707;27;24445;-46
2022/07/09 12:47:20;;;;;;;1.80;1.70;;;;;;;;;;5096109;27;24509;-46
2022/07/09 12:49:45;;;;;;;2.13;1.93;;;;;;;;;;5097118;28;24460;-46
2022/07/09 12:52:10;;;;;;;1.80;1.70;;;;;;;;;;5105712;28;25220;-46
2022/07/09 12:54:35;;;;;;;1.90;1.80;;;;;;;;;;5103172;28;24501;-46
2022/07/09 12:57:01;;;;;;;2.15;1.80;;;;;;;;;;5109862;27;24671;-45
2022/07/09 12:59:26;;;;;;;1.80;1.70;;;;;;;;;;5103823;28;24951;-45
2022/07/09 13:01:51;;;;;;;2.40;2.20;;;;;;;;;;5109482;27;24519;-46
2022/07/09 13:04:16;;;;;;;2.75;2.42;;;;;;;;;;5104908;27;24426;-44
2022/07/09 13:06:41;;;;;;;3.00;2.70;;;;;;;;;;5097168;28;24449;-46
2022/07/09 13:09:08;;;;;;;2.70;2.30;;;;;;;;;;5086476;28;24444;-46
2022/07/09 13:11:33;;;;;;;3.20;2.15;;;;;;;;;;5103209;28;24425;-46
2022/07/09 13:13:58;;;;;;;1.90;1.80;;;;;;;;;;5097921;28;24429;-46
2022/07/09 13:16:23;;;;;;;2.38;2.17;;;;;;;;;;5098514;28;25001;-46
2022/07/09 13:18:49;;;;;;;1.90;1.80;;;;;;;;;;5105644;28;24396;-46
2022/07/09 13:21:14;;;;;;;2.00;1.90;;;;;;;;;;5105116;28;24516;-46
2022/07/09 13:23:39;;;;;;;1.87;1.77;;;;;;;;;;5105965;28;24537;-45
2022/07/09 13:26:04;;;;;;;1.90;1.80;;;;;;;;;;5099653;28;24417;-46
2022/07/09 13:28:30;;;;;;;1.70;1.60;;;;;;;;;;5086142;28;24510;-46
2022/07/09 13:30:55;;;;;;;2.00;1.80;;;;;;;;;;5099148;28;25024;-46
2022/07/09 13:33:20;;;;;;;2.30;2.20;;;;;;;;;;5104009;28;24919;-46
2022/07/09 13:35:45;;;;;;;2.22;2.00;;;;;;;;;;5100891;28;24433;-46
2022/07/09 13:38:10;;;;;;;3.17;2.20;;;;;;;;;;5090119;28;24398;-45
2022/07/09 13:40:35;;;;;;;2.75;2.03;;;;;;;;;;5104095;28;24425;-45
2022/07/09 13:43:01;;;;;;;3.20;2.00;;;;;;;;;;5090843;28;24423;-45
2022/07/09 13:45:28;;;;;;;1.65;1.55;;;;;;;;;;5096605;28;24440;-46
2022/07/09 13:47:53;;;;;;;2.20;2.00;;;;;;;;;;5090676;28;24491;-45
2022/07/09 13:50:18;;;;;;;2.20;2.00;;;;;;;;;;5095869;28;24422;-45
2022/07/09 13:52:43;;;;;;;1.67;1.58;;;;;;;;;;5092450;28;24525;-46
2022/07/09 13:55:08;;;;;;;2.00;1.90;;;;;;;;;;5097026;28;24791;-46
2022/07/09 13:57:33;;;;;;;1.70;1.60;;;;;;;;;;5090274;28;24429;-45
2022/07/09 13:59:59;;;;;;;1.73;1.60;;;;;;;;;;5094307;28;25076;-46
2022/07/09 14:02:25;;;;;;;2.20;2.00;;;;;;;;;;5085782;28;24414;-45
2022/07/09 14:04:50;;;;;;;1.80;1.70;;;;;;;;;;5103558;28;24417;-51
2022/07/09 14:07:15;;;;;;;1.90;1.80;;;;;;;;;;5085988;28;24394;-46
2022/07/09 14:09:41;;;;;;;1.80;1.70;;;;;;;;;;5104577;27;24772;-46
2022/07/09 14:12:06;;;;;;;1.90;1.80;;;;;;;;;;5090129;28;24429;-46
2022/07/09 14:14:31;;;;;;;1.93;1.80;;;;;;;;;;5085173;28;24521;-45
2022/07/09 14:16:56;;;;;;;2.20;2.00;;;;;;;;;;5084707;28;24497;-46
2022/07/09 14:19:21;;;;;;;1.93;1.83;;;;;;;;;;5085895;28;24681;-48
2022/07/09 14:21:47;;;;;;;2.30;2.10;;;;;;;;;;5092898;28;24418;-46
2022/07/09 14:24:12;;;;;;;3.77;2.60;;;;;;;;;;5105257;28;24456;-46
2022/07/09 14:26:38;;;;;;;3.33;2.78;;;;;;;;;;5104766;28;24432;-46
2022/07/09 14:29:03;;;;;;;4.53;4.23;;;;;;;;;;5106008;28;24394;-46
2022/07/09 14:31:28;;;;;;;3.40;3.20;;;;;;;;;;5105922;28;24793;-45
2022/07/09 14:33:56;;;;;;;4.30;4.00;;;;;;;;;;5087351;28;25017;-45
2022/07/09 14:36:22;;;;;;;3.30;3.00;;;;;;;;;;5085407;28;24935;-45